createdAt,value
2019-05-26T00:02:09.357Z,12.73
2019-05-26T00:04:38.046Z,13.07
2019-05-26T00:07:06.648Z,12.93
2019-05-26T00:09:35.257Z,13.23
2019-05-26T00:12:03.981Z,12.00
2019-05-26T00:14:33.626Z,13.13
2019-05-26T00:17:02.166Z,12.57
2019-05-26T00:19:30.757Z,13.13
2019-05-26T00:21:59.441Z,14.30
2019-05-26T00:24:28.077Z,13.87
2019-05-26T00:26:56.610Z,12.93
2019-05-26T00:29:25.285Z,12.37
2019-05-26T00:31:54.128Z,12.17
2019-05-26T00:34:22.793Z,13.63
2019-05-26T00:36:51.470Z,12.60
2019-05-26T00:39:20.030Z,12.45
2019-05-26T00:41:48.629Z,12.63
2019-05-26T00:44:17.272Z,12.65
2019-05-26T00:46:45.925Z,12.67
2019-05-26T00:49:14.530Z,12.80
2019-05-26T00:51:43.197Z,11.53
2019-05-26T00:54:11.723Z,12.70
2019-05-26T00:56:40.775Z,11.70
2019-05-26T00:59:10.448Z,12.07
2019-05-26T01:01:39.050Z,12.65
2019-05-26T01:04:08.053Z,12.75
2019-05-26T01:06:36.589Z,13.08
2019-05-26T01:09:07.023Z,11.10
2019-05-26T01:11:35.769Z,12.47
2019-05-26T01:14:05.286Z,11.05
2019-05-26T01:16:33.906Z,12.68
2019-05-26T01:19:02.624Z,11.63
2019-05-26T01:21:31.307Z,11.57
2019-05-26T01:23:59.913Z,12.00
2019-05-26T01:26:28.539Z,12.40
2019-05-26T01:28:57.178Z,12.47
2019-05-26T01:31:25.856Z,12.57
2019-05-26T01:33:54.454Z,11.97
2019-05-26T01:36:23.159Z,13.03
2019-05-26T01:38:51.782Z,12.33
2019-05-26T01:41:20.399Z,12.03
2019-05-26T01:43:49.034Z,11.88
2019-05-26T01:46:17.734Z,12.35
2019-05-26T01:48:46.981Z,11.65
2019-05-26T01:51:15.555Z,11.57
2019-05-26T01:53:44.192Z,12.15
2019-05-26T01:56:12.794Z,12.23
2019-05-26T01:58:41.443Z,12.53
2019-05-26T02:01:10.070Z,11.47
2019-05-26T02:03:38.670Z,11.77
2019-05-26T02:06:07.297Z,10.77
2019-05-26T02:08:39.523Z,12.63
2019-05-26T02:11:06.283Z,12.58
2019-05-26T02:13:34.885Z,11.73
2019-05-26T02:16:03.486Z,11.45
2019-05-26T02:18:32.158Z,12.47
2019-05-26T02:21:00.771Z,12.50
2019-05-26T02:23:29.398Z,12.07
2019-05-26T02:25:57.929Z,11.57
2019-05-26T02:28:26.549Z,11.43
2019-05-26T02:30:55.140Z,10.77
2019-05-26T02:33:23.754Z,10.18
2019-05-26T02:35:52.386Z,11.47
2019-05-26T02:38:25.718Z,10.95
2019-05-26T02:40:51.195Z,10.65
2019-05-26T02:43:19.820Z,11.95
2019-05-26T02:45:48.434Z,12.15
2019-05-26T02:48:17.053Z,11.25
2019-05-26T02:50:45.662Z,9.30
2019-05-26T02:53:14.273Z,9.20
2019-05-26T02:55:42.810Z,11.03
2019-05-26T02:58:11.847Z,12.35
2019-05-26T03:00:41.235Z,11.23
2019-05-26T03:03:09.998Z,11.97
2019-05-26T03:05:39.811Z,11.30
2019-05-26T03:08:08.814Z,11.80
2019-05-26T03:10:37.835Z,10.27
2019-05-26T03:13:06.458Z,10.57
2019-05-26T03:15:35.257Z,10.47
2019-05-26T03:18:05.346Z,11.70
2019-05-26T03:20:38.063Z,9.25
2019-05-26T03:23:06.680Z,10.27
2019-05-26T03:25:35.274Z,9.60
2019-05-26T03:28:04.071Z,9.40
2019-05-26T03:30:32.679Z,9.53
2019-05-26T03:33:01.387Z,9.05
2019-05-26T03:35:30.015Z,9.70
2019-05-26T03:37:58.612Z,10.17
2019-05-26T03:40:27.207Z,9.63
2019-05-26T03:42:55.789Z,9.40
2019-05-26T03:45:24.611Z,10.25
2019-05-26T03:47:53.266Z,8.60
2019-05-26T03:50:21.843Z,9.13
2019-05-26T03:52:50.468Z,9.20
2019-05-26T03:55:19.068Z,9.65
2019-05-26T03:57:47.669Z,7.40
2019-05-26T04:00:16.194Z,9.10
2019-05-26T04:02:45.263Z,9.68
2019-05-26T04:05:13.885Z,9.50
2019-05-26T04:07:42.455Z,9.17
2019-05-26T04:10:12.263Z,7.75
2019-05-26T04:12:41.468Z,9.68
2019-05-26T04:15:10.097Z,8.97
2019-05-26T04:17:39.126Z,7.78
2019-05-26T04:20:07.927Z,10.03
2019-05-26T04:22:37.078Z,9.03
2019-05-26T04:25:05.996Z,7.93
2019-05-26T04:27:34.855Z,7.90
2019-05-26T04:30:03.595Z,8.87
2019-05-26T04:32:32.190Z,5.80
2019-05-26T04:35:00.927Z,7.00
2019-05-26T04:37:29.461Z,8.23
2019-05-26T04:39:58.609Z,8.38
2019-05-26T04:42:27.238Z,8.43
2019-05-26T04:44:56.242Z,8.28
2019-05-26T04:47:24.856Z,7.93
2019-05-26T04:49:53.958Z,9.20
2019-05-26T04:52:22.631Z,6.67
2019-05-26T04:54:51.617Z,7.17
2019-05-26T04:57:20.178Z,9.63
2019-05-26T04:59:49.243Z,9.18
2019-05-26T05:02:17.814Z,7.97
2019-05-26T05:04:46.830Z,9.13
2019-05-26T05:07:15.433Z,6.30
2019-05-26T05:09:44.447Z,2.00
2019-05-26T05:12:13.045Z,7.70
2019-05-26T05:14:42.087Z,8.25
2019-05-26T05:17:10.686Z,8.53
2019-05-26T05:19:39.288Z,7.87
2019-05-26T05:22:07.897Z,7.63
2019-05-26T05:24:36.436Z,4.28
2019-05-26T05:27:05.035Z,1.30
2019-05-26T05:29:33.635Z,7.10
2019-05-26T05:32:02.705Z,8.58
2019-05-26T05:34:31.271Z,7.40
2019-05-26T05:37:00.834Z,1.82
2019-05-26T05:39:29.435Z,6.87
2019-05-26T05:41:58.031Z,6.70
2019-05-26T05:44:26.644Z,7.90
2019-05-26T05:46:55.723Z,7.87
2019-05-26T05:49:24.322Z,7.43
2019-05-26T05:51:52.935Z,2.77
2019-05-26T05:54:21.801Z,7.62
2019-05-26T05:56:50.410Z,7.23
2019-05-26T05:59:19.537Z,4.78
2019-05-26T06:01:48.215Z,7.07
2019-05-26T06:04:17.386Z,6.65
2019-05-26T06:06:45.999Z,6.30
2019-05-26T06:09:15.160Z,6.90
2019-05-26T06:11:43.737Z,4.80
2019-05-26T06:14:12.871Z,5.10
2019-05-26T06:16:41.470Z,7.33
2019-05-26T06:19:10.621Z,3.98
2019-05-26T06:21:39.295Z,3.57
2019-05-26T06:24:08.303Z,6.83
2019-05-26T06:26:36.838Z,2.80
2019-05-26T06:29:06.159Z,5.00
2019-05-26T06:31:34.921Z,6.70
2019-05-26T06:34:04.085Z,5.12
2019-05-26T06:36:32.689Z,5.93
2019-05-26T06:39:01.701Z,8.03
2019-05-26T06:41:33.755Z,6.87
2019-05-26T06:44:01.608Z,3.47
2019-05-26T06:46:30.749Z,4.65
2019-05-26T06:48:59.269Z,6.87
2019-05-26T06:51:28.455Z,5.00
2019-05-26T06:53:57.052Z,2.37
2019-05-26T06:56:25.636Z,6.33
2019-05-26T06:58:54.176Z,1.23
2019-05-26T07:01:22.755Z,8.07
2019-05-26T07:03:51.883Z,5.40
2019-05-26T07:06:20.559Z,7.87
2019-05-26T07:08:50.129Z,9.03
2019-05-26T07:11:19.378Z,3.58
2019-05-26T07:13:47.978Z,0.90
2019-05-26T07:16:17.126Z,1.37
2019-05-26T07:18:45.799Z,2.23
2019-05-26T07:21:14.813Z,7.40
2019-05-26T07:23:43.407Z,5.77
2019-05-26T07:26:12.002Z,4.83
2019-05-26T07:28:40.605Z,7.00
2019-05-26T07:31:09.261Z,5.10
2019-05-26T07:33:37.781Z,3.97
2019-05-26T07:36:06.306Z,0.80
2019-05-26T07:38:34.854Z,5.40
2019-05-26T07:41:03.462Z,4.70
2019-05-26T07:43:32.467Z,4.80
2019-05-26T07:46:01.081Z,4.47
2019-05-26T07:48:29.707Z,7.30
2019-05-26T07:50:58.342Z,1.40
2019-05-26T07:53:26.875Z,1.40
2019-05-26T07:55:55.487Z,8.10
2019-05-26T07:58:24.093Z,9.20
2019-05-26T08:00:52.696Z,5.45
2019-05-26T08:03:21.308Z,7.90
2019-05-26T08:05:50.638Z,2.07
2019-05-26T08:08:19.243Z,5.50
2019-05-26T08:10:47.862Z,3.45
2019-05-26T08:13:16.442Z,8.57
2019-05-26T08:15:45.056Z,8.20
2019-05-26T08:18:13.645Z,7.63
2019-05-26T08:20:43.843Z,1.55
2019-05-26T08:23:12.446Z,9.58
2019-05-26T08:25:41.039Z,9.00
2019-05-26T08:28:09.570Z,3.47
2019-05-26T08:30:38.514Z,6.75
2019-05-26T08:33:07.118Z,7.43
2019-05-26T08:35:36.218Z,6.70
2019-05-26T08:38:04.733Z,8.60
2019-05-26T08:40:34.056Z,8.63
2019-05-26T08:43:02.643Z,6.03
2019-05-26T08:45:31.834Z,8.35
2019-05-26T08:48:00.431Z,4.43
2019-05-26T08:50:29.527Z,5.20
2019-05-26T08:52:58.201Z,1.33
2019-05-26T08:55:27.711Z,1.83
2019-05-26T08:57:56.367Z,4.80
2019-05-26T09:00:25.558Z,7.73
2019-05-26T09:02:54.087Z,4.78
2019-05-26T09:05:22.685Z,1.80
2019-05-26T09:07:51.541Z,4.60
2019-05-26T09:10:20.177Z,4.80
2019-05-26T09:13:00.390Z,2.53
2019-05-26T09:15:19.414Z,2.45
2019-05-26T09:17:48.032Z,3.33
2019-05-26T09:20:17.604Z,10.50
2019-05-26T09:22:46.224Z,3.73
2019-05-26T09:25:14.957Z,6.67
2019-05-26T09:27:43.579Z,6.95
2019-05-26T09:30:14.407Z,1.98
2019-05-26T09:32:42.993Z,2.77
2019-05-26T09:35:12.065Z,4.40
2019-05-26T09:37:40.773Z,8.98
2019-05-26T09:40:11.525Z,3.70
2019-05-26T09:42:40.133Z,9.90
2019-05-26T09:45:09.235Z,6.37
2019-05-26T09:47:38.232Z,7.78
2019-05-26T09:50:07.128Z,3.00
2019-05-26T09:52:35.699Z,4.03
2019-05-26T09:55:04.965Z,7.58
2019-05-26T09:57:33.677Z,3.85
2019-05-26T10:00:02.297Z,3.42
2019-05-26T10:02:31.079Z,4.50
2019-05-26T10:04:59.700Z,6.47
2019-05-26T10:07:28.321Z,3.67
2019-05-26T10:09:57.038Z,4.17
2019-05-26T10:12:25.590Z,1.52
2019-05-26T10:14:54.218Z,8.13
2019-05-26T10:17:23.425Z,4.23
2019-05-26T10:19:52.337Z,9.35
2019-05-26T10:22:20.903Z,3.52
2019-05-26T10:24:49.754Z,5.87
2019-05-26T10:27:18.286Z,8.30
2019-05-26T10:29:47.474Z,8.30
2019-05-26T10:32:16.061Z,2.70
2019-05-26T10:34:45.251Z,2.40
2019-05-26T10:37:13.889Z,2.87
2019-05-26T10:39:45.024Z,4.28
2019-05-26T10:42:13.033Z,7.67
2019-05-26T10:44:41.729Z,2.93
2019-05-26T10:47:10.319Z,6.62
2019-05-26T10:49:38.988Z,6.47
2019-05-26T10:52:07.859Z,2.60
2019-05-26T10:54:36.481Z,2.43
2019-05-26T10:57:05.079Z,7.15
2019-05-26T10:59:33.770Z,5.93
2019-05-26T11:02:02.697Z,2.98
2019-05-26T11:04:31.317Z,3.10
2019-05-26T11:06:59.909Z,3.23
2019-05-26T11:09:28.762Z,3.80
2019-05-26T11:11:57.286Z,2.73
2019-05-26T11:14:26.430Z,2.90
2019-05-26T11:16:54.942Z,3.40
2019-05-26T11:19:24.020Z,2.15
2019-05-26T11:21:52.621Z,1.93
2019-05-26T11:24:21.594Z,2.80
2019-05-26T11:26:50.229Z,4.03
2019-05-26T11:29:18.822Z,1.93
2019-05-26T11:31:47.421Z,1.67
2019-05-26T11:34:15.930Z,1.92
2019-05-26T11:36:44.457Z,2.42
2019-05-26T11:39:13.054Z,2.33
2019-05-26T11:41:41.589Z,2.90
2019-05-26T11:44:17.822Z,1.70
2019-05-26T11:46:40.370Z,2.20
2019-05-26T11:49:08.957Z,2.77
2019-05-26T11:51:37.542Z,2.47
2019-05-26T11:54:06.169Z,1.27
2019-05-26T11:56:34.748Z,2.30
2019-05-26T11:59:03.945Z,3.05
2019-05-26T12:01:32.484Z,3.97
2019-05-26T12:04:01.459Z,1.95
2019-05-26T12:06:30.059Z,1.30
2019-05-26T12:08:59.030Z,1.40
2019-05-26T12:11:27.541Z,2.67
2019-05-26T12:13:56.146Z,1.80
2019-05-26T12:16:28.757Z,3.05
2019-05-26T12:18:56.346Z,2.20
2019-05-26T12:21:25.032Z,2.00
2019-05-26T12:23:55.101Z,1.90
2019-05-26T12:26:23.819Z,2.10
2019-05-26T12:28:52.431Z,2.27
2019-05-26T12:31:21.029Z,2.10
2019-05-26T12:33:49.603Z,2.00
2019-05-26T12:36:18.190Z,0.90
2019-05-26T12:38:53.065Z,2.87
2019-05-26T12:41:21.961Z,2.13
2019-05-26T12:43:50.498Z,1.90
2019-05-26T12:46:19.114Z,1.30
2019-05-26T12:48:47.713Z,1.62
2019-05-26T12:51:16.302Z,1.90
2019-05-26T12:53:44.938Z,2.47
2019-05-26T12:56:13.585Z,2.03
2019-05-26T12:58:42.278Z,1.90
2019-05-26T13:01:10.902Z,1.60
2019-05-26T13:03:39.485Z,1.47
2019-05-26T13:06:08.073Z,2.30
2019-05-26T13:08:36.590Z,1.50
2019-05-26T13:11:05.438Z,2.08
2019-05-26T13:13:34.042Z,1.77
2019-05-26T13:16:03.054Z,1.77
2019-05-26T13:18:31.565Z,1.73
2019-05-26T13:21:00.740Z,2.05
2019-05-26T13:23:30.253Z,1.77
2019-05-26T13:25:58.830Z,1.73
2019-05-26T13:28:27.436Z,2.73
2019-05-26T13:30:56.661Z,3.70
2019-05-26T13:33:25.262Z,2.10
2019-05-26T13:35:54.097Z,3.30
2019-05-26T13:38:22.673Z,1.70
2019-05-26T13:40:51.682Z,2.87
2019-05-26T13:43:20.277Z,1.47
2019-05-26T13:45:48.810Z,1.95
2019-05-26T13:48:17.321Z,1.23
2019-05-26T13:50:45.913Z,0.85
2019-05-26T13:53:14.498Z,1.40
2019-05-26T13:55:43.181Z,3.12
2019-05-26T13:58:11.758Z,1.70
2019-05-26T14:00:40.269Z,1.57
2019-05-26T14:03:08.871Z,1.57
2019-05-26T14:05:37.378Z,1.20
2019-05-26T14:08:05.967Z,1.60
2019-05-26T14:10:35.417Z,2.75
2019-05-26T14:13:04.710Z,2.57
2019-05-26T14:15:37.918Z,1.50
2019-05-26T14:18:04.932Z,1.72
2019-05-26T14:20:34.334Z,1.97
2019-05-26T14:23:03.074Z,1.67
2019-05-26T14:25:31.689Z,2.83
2019-05-26T14:28:00.274Z,1.25
2019-05-26T14:30:28.857Z,1.20
2019-05-26T14:32:57.958Z,1.20
2019-05-26T14:35:27.176Z,2.00
2019-05-26T14:37:55.850Z,2.00
2019-05-26T14:40:24.718Z,1.62
2019-05-26T14:42:53.309Z,2.80
2019-05-26T14:45:22.726Z,2.45
2019-05-26T14:47:52.320Z,3.90
2019-05-26T14:50:21.010Z,2.03
2019-05-26T14:52:50.398Z,3.53
2019-05-26T14:55:19.247Z,2.80
2019-05-26T14:57:48.784Z,1.53
2019-05-26T15:00:17.590Z,2.17
2019-05-26T15:02:46.190Z,1.77
2019-05-26T15:05:15.762Z,1.32
2019-05-26T15:07:44.479Z,2.35
2019-05-26T15:10:13.247Z,2.63
2019-05-26T15:12:41.866Z,2.33
2019-05-26T15:15:11.203Z,3.42
2019-05-26T15:17:39.826Z,2.67
2019-05-26T15:20:08.459Z,1.70
2019-05-26T15:22:37.045Z,1.50
2019-05-26T15:25:05.994Z,1.15
2019-05-26T15:27:34.659Z,1.90
2019-05-26T15:30:03.648Z,1.80
2019-05-26T15:32:32.214Z,1.57
2019-05-26T15:35:00.791Z,1.10
2019-05-26T15:37:29.649Z,2.58
2019-05-26T15:39:58.182Z,1.30
2019-05-26T15:42:27.378Z,2.92
2019-05-26T15:44:55.967Z,2.97
2019-05-26T15:47:25.001Z,2.10
2019-05-26T15:49:53.517Z,1.37
2019-05-26T15:52:22.468Z,2.70
2019-05-26T15:54:51.246Z,1.17
2019-05-26T15:57:19.765Z,1.27
2019-05-26T15:59:48.363Z,2.87
2019-05-26T16:02:16.968Z,2.13
2019-05-26T16:04:45.787Z,1.50
2019-05-26T16:07:14.334Z,1.60
2019-05-26T16:09:43.019Z,1.80
2019-05-26T16:12:11.618Z,2.33
2019-05-26T16:14:40.273Z,1.97
2019-05-26T16:17:08.829Z,1.15
2019-05-26T16:19:37.414Z,1.50
2019-05-26T16:22:05.938Z,1.63
2019-05-26T16:24:34.808Z,1.42
2019-05-26T16:27:18.153Z,1.63
2019-05-26T16:29:33.705Z,1.13
2019-05-26T16:32:02.303Z,1.98
2019-05-26T16:34:30.916Z,2.00
2019-05-26T16:36:59.607Z,1.62
2019-05-26T16:39:36.453Z,2.00
2019-05-26T16:41:59.140Z,0.82
2019-05-26T16:44:27.730Z,1.17
2019-05-26T16:46:57.151Z,1.20
2019-05-26T16:49:25.812Z,0.70
2019-05-26T16:51:55.365Z,0.78
2019-05-26T16:54:24.944Z,1.52
2019-05-26T16:56:53.458Z,1.27
2019-05-26T16:59:22.638Z,1.10
2019-05-26T17:01:51.271Z,1.47
2019-05-26T17:04:20.253Z,1.42
2019-05-26T17:06:48.768Z,1.60
2019-05-26T17:09:17.885Z,1.95
2019-05-26T17:11:46.459Z,1.30
2019-05-26T17:14:15.515Z,1.50
2019-05-26T17:16:44.094Z,1.50
2019-05-26T17:19:12.690Z,1.47
2019-05-26T17:21:42.063Z,1.27
2019-05-26T17:24:10.690Z,1.30
2019-05-26T17:26:39.284Z,0.90
2019-05-26T17:29:07.892Z,1.17
2019-05-26T17:31:36.565Z,1.07
2019-05-26T17:34:05.219Z,1.77
2019-05-26T17:36:33.806Z,1.00
2019-05-26T17:39:02.425Z,1.53
2019-05-26T17:41:31.690Z,1.57
2019-05-26T17:44:00.354Z,1.45
2019-05-26T17:46:29.950Z,1.40
2019-05-26T17:48:58.757Z,1.10
2019-05-26T17:51:27.349Z,1.17
2019-05-26T17:53:55.898Z,1.65
2019-05-26T17:56:25.474Z,0.87
2019-05-26T17:58:53.994Z,0.93
2019-05-26T18:01:22.606Z,1.00
2019-05-26T18:03:51.192Z,0.90
2019-05-26T18:06:19.781Z,0.90
2019-05-26T18:08:48.413Z,0.80
2019-05-26T18:11:16.985Z,0.50
2019-05-26T18:13:46.684Z,0.60
2019-05-26T18:16:15.402Z,1.02
2019-05-26T18:18:43.911Z,0.97
2019-05-26T18:21:12.548Z,0.98
2019-05-26T18:23:41.373Z,0.93
2019-05-26T18:26:09.956Z,1.10
2019-05-26T18:28:38.974Z,0.62
2019-05-26T18:31:07.569Z,0.73
2019-05-26T18:33:36.628Z,0.82
2019-05-26T18:36:05.222Z,0.60
2019-05-26T18:38:34.259Z,0.60
2019-05-26T18:41:02.769Z,0.87
2019-05-26T18:43:31.362Z,0.70
2019-05-26T18:45:59.949Z,0.82
2019-05-26T18:48:28.534Z,0.80
2019-05-26T18:50:57.063Z,1.10
2019-05-26T18:53:25.620Z,0.90
2019-05-26T18:55:54.291Z,0.97
2019-05-26T18:58:22.894Z,0.88
2019-05-26T19:00:51.429Z,0.98
2019-05-26T19:03:21.118Z,0.90
2019-05-26T19:05:49.737Z,0.47
2019-05-26T19:08:19.108Z,0.88
2019-05-26T19:10:47.694Z,1.15
2019-05-26T19:13:16.201Z,1.47
2019-05-26T19:15:44.745Z,0.40
2019-05-26T19:18:19.979Z,0.60
2019-05-26T19:20:43.861Z,0.98
2019-05-26T19:23:12.473Z,0.90
2019-05-26T19:25:42.034Z,1.15
2019-05-26T19:28:11.510Z,0.90
2019-05-26T19:30:40.113Z,1.10
2019-05-26T19:33:08.617Z,0.67
2019-05-26T19:35:39.081Z,0.53
2019-05-26T19:38:08.316Z,1.63
2019-05-26T19:40:36.843Z,0.77
2019-05-26T19:43:05.712Z,0.95
2019-05-26T19:45:34.322Z,0.90
2019-05-26T19:48:03.418Z,1.15
2019-05-26T19:50:32.113Z,0.50
2019-05-26T19:53:00.710Z,1.30
2019-05-26T19:55:29.321Z,1.20
2019-05-26T19:57:57.987Z,1.35
2019-05-26T20:00:26.811Z,0.65
2019-05-26T20:02:55.349Z,0.93
2019-05-26T20:05:23.942Z,1.10
2019-05-26T20:07:52.527Z,0.70
2019-05-26T20:10:21.340Z,1.17
2019-05-26T20:12:50.993Z,1.27
2019-05-26T20:15:19.737Z,1.02
2019-05-26T20:17:48.356Z,0.83
2019-05-26T20:20:17.211Z,0.93
2019-05-26T20:22:45.828Z,0.57
2019-05-26T20:25:14.519Z,1.47
2019-05-26T20:27:43.406Z,1.25
2019-05-26T20:30:12.133Z,0.83
2019-05-26T20:32:40.972Z,1.47
2019-05-26T20:35:10.780Z,0.77
2019-05-26T20:37:39.361Z,0.80
2019-05-26T20:40:08.066Z,1.07
2019-05-26T20:42:36.712Z,1.30
2019-05-26T20:45:05.522Z,1.60
2019-05-26T20:47:34.105Z,2.10
2019-05-26T20:50:02.633Z,1.40
2019-05-26T20:52:31.498Z,2.08
2019-05-26T20:55:00.081Z,1.93
2019-05-26T20:57:29.070Z,2.00
2019-05-26T20:59:57.670Z,2.87
2019-05-26T21:02:26.675Z,0.95
2019-05-26T21:04:55.282Z,1.83
2019-05-26T21:07:24.233Z,2.15
2019-05-26T21:09:52.813Z,0.73
2019-05-26T21:12:21.752Z,1.75
2019-05-26T21:14:50.371Z,0.78
2019-05-26T21:17:18.957Z,2.10
2019-05-26T21:19:47.538Z,1.80
2019-05-26T21:22:16.165Z,2.13
2019-05-26T21:24:44.760Z,1.30
2019-05-26T21:27:13.345Z,2.17
2019-05-26T21:29:41.951Z,1.90
2019-05-26T21:32:10.617Z,2.25
2019-05-26T21:34:39.190Z,2.30
2019-05-26T21:37:07.783Z,2.40
2019-05-26T21:39:36.400Z,1.80
2019-05-26T21:42:05.010Z,2.13
2019-05-26T21:44:33.982Z,2.40
2019-05-26T21:47:02.505Z,0.97
2019-05-26T21:49:32.102Z,1.57
2019-05-26T21:52:00.672Z,0.93
2019-05-26T21:54:29.258Z,1.30
2019-05-26T21:56:57.768Z,1.77
2019-05-26T21:59:26.361Z,0.90
2019-05-26T22:01:54.896Z,1.72
2019-05-26T22:04:23.417Z,2.37
2019-05-26T22:06:52.022Z,1.67
2019-05-26T22:09:20.993Z,1.97
2019-05-26T22:11:49.608Z,0.50
2019-05-26T22:14:18.193Z,2.02
2019-05-26T22:16:46.814Z,2.13
2019-05-26T22:19:15.432Z,2.33
2019-05-26T22:21:44.021Z,1.80
2019-05-26T22:24:12.564Z,1.45
2019-05-26T22:26:41.162Z,3.20
2019-05-26T22:29:09.749Z,2.35
2019-05-26T22:31:38.257Z,1.93
2019-05-26T22:34:06.785Z,2.67
2019-05-26T22:36:35.306Z,2.30
2019-05-26T22:39:04.706Z,1.50
2019-05-26T22:41:33.502Z,2.67
2019-05-26T22:44:02.094Z,2.43
2019-05-26T22:46:30.617Z,1.37
2019-05-26T22:48:59.305Z,1.17
2019-05-26T22:51:27.825Z,1.85
2019-05-26T22:53:56.425Z,1.50
2019-05-26T22:56:25.028Z,0.90
2019-05-26T22:58:53.623Z,2.50
2019-05-26T23:01:22.248Z,1.95
2019-05-26T23:03:50.837Z,2.70
2019-05-26T23:06:19.449Z,1.17
2019-05-26T23:08:48.041Z,2.10
2019-05-26T23:11:16.570Z,2.40
2019-05-26T23:13:45.669Z,1.60
2019-05-26T23:16:14.194Z,1.07
2019-05-26T23:18:42.736Z,0.80
2019-05-26T23:21:11.458Z,2.02
2019-05-26T23:23:40.130Z,2.00
2019-05-26T23:26:08.666Z,2.55
2019-05-26T23:28:37.261Z,2.00
2019-05-26T23:31:05.912Z,1.07
2019-05-26T23:33:34.509Z,1.30
2019-05-26T23:36:03.132Z,1.77
2019-05-26T23:38:31.725Z,1.93
2019-05-26T23:41:00.255Z,1.17
2019-05-26T23:43:28.861Z,0.63
2019-05-26T23:45:57.388Z,1.60
2019-05-26T23:48:26.347Z,0.80
2019-05-26T23:50:54.930Z,1.27
2019-05-26T23:53:23.534Z,1.70
2019-05-26T23:55:52.163Z,0.85
2019-05-26T23:58:20.746Z,1.10
